createdAt,value
2019-06-01T00:02:01.839Z,69.58
2019-06-01T00:07:04.314Z,69.82
2019-06-01T00:12:06.832Z,69.96
2019-06-01T00:17:09.265Z,70.04
2019-06-01T00:22:11.735Z,70.15
2019-06-01T00:27:14.191Z,70.22
2019-06-01T00:32:16.670Z,69.84
2019-06-01T00:37:19.122Z,69.85
2019-06-01T00:42:21.589Z,69.92
2019-06-01T00:47:24.059Z,69.69
2019-06-01T00:52:26.513Z,69.53
2019-06-01T00:57:28.964Z,69.36
2019-06-01T01:02:31.408Z,69.62
2019-06-01T01:07:33.876Z,70.14
2019-06-01T01:12:36.323Z,70.37
2019-06-01T01:17:38.791Z,70.35
2019-06-01T01:22:41.282Z,70.39
2019-06-01T01:27:43.747Z,70.45
2019-06-01T01:32:47.380Z,71.03
2019-06-01T01:37:49.944Z,70.69
2019-06-01T01:42:52.271Z,71.12
2019-06-01T01:47:53.589Z,70.93
2019-06-01T01:52:57.019Z,71.11
2019-06-01T01:57:59.545Z,71.65
2019-06-01T02:03:02.291Z,71.55
2019-06-01T02:08:03.430Z,71.92
2019-06-01T02:13:05.891Z,71.82
2019-06-01T02:18:08.359Z,71.94
2019-06-01T02:23:10.835Z,72.00
2019-06-01T02:28:13.304Z,72.11
2019-06-01T02:33:15.757Z,72.40
2019-06-01T02:38:18.222Z,72.46
2019-06-01T02:43:20.664Z,72.65
2019-06-01T02:48:23.125Z,72.74
2019-06-01T02:53:25.573Z,72.92
2019-06-01T02:58:28.039Z,72.72
2019-06-01T03:03:30.503Z,72.65
2019-06-01T03:08:32.956Z,72.47
2019-06-01T03:13:35.566Z,72.42
2019-06-01T03:18:38.030Z,72.39
2019-06-01T03:23:40.496Z,72.49
2019-06-01T03:28:42.974Z,72.44
2019-06-01T03:33:45.445Z,72.16
2019-06-01T03:38:47.917Z,72.10
2019-06-01T03:43:50.423Z,71.86
2019-06-01T03:48:52.905Z,71.37
2019-06-01T03:53:55.380Z,71.84
2019-06-01T03:58:57.899Z,71.54
2019-06-01T04:04:00.932Z,71.28
2019-06-01T04:09:03.528Z,71.13
2019-06-01T04:14:05.601Z,70.54
2019-06-01T04:19:08.043Z,70.20
2019-06-01T04:24:10.325Z,69.85
2019-06-01T04:29:12.715Z,69.33
2019-06-01T04:34:15.097Z,68.89
2019-06-01T04:39:17.546Z,68.55
2019-06-01T04:44:20.002Z,67.86
2019-06-01T04:49:22.470Z,67.24
2019-06-01T04:54:24.949Z,66.72
2019-06-01T04:59:27.401Z,66.28
2019-06-01T05:04:29.866Z,66.03
2019-06-01T05:09:32.331Z,66.08
2019-06-01T05:14:34.785Z,66.39
2019-06-01T05:19:37.256Z,66.14
2019-06-01T05:24:39.708Z,66.11
2019-06-01T05:29:42.172Z,65.68
2019-06-01T05:34:44.792Z,64.71
2019-06-01T05:39:47.261Z,63.94
2019-06-01T05:44:49.715Z,62.55
2019-06-01T05:49:52.174Z,60.75
2019-06-01T05:54:54.725Z,56.88
2019-06-01T05:59:57.190Z,48.08
2019-06-01T06:04:59.663Z,45.05
2019-06-01T06:10:02.385Z,43.77
2019-06-01T06:15:04.712Z,43.10
2019-06-01T06:20:07.190Z,42.15
2019-06-01T06:25:09.736Z,41.58
2019-06-01T06:30:12.807Z,41.76
2019-06-01T06:35:15.344Z,41.23
2019-06-01T06:40:18.002Z,40.90
2019-06-01T06:45:20.762Z,41.27
2019-06-01T06:50:23.461Z,40.61
2019-06-01T06:55:24.747Z,40.53
2019-06-01T07:00:27.237Z,40.74
2019-06-01T07:05:31.450Z,40.64
2019-06-01T07:10:32.174Z,40.03
2019-06-01T07:15:34.613Z,40.10
2019-06-01T07:20:37.092Z,39.85
2019-06-01T07:25:39.544Z,39.66
2019-06-01T07:30:50.348Z,39.16
2019-06-01T07:35:44.483Z,39.53
2019-06-01T07:40:46.982Z,39.04
2019-06-01T07:45:49.418Z,37.89
2019-06-01T07:50:51.878Z,37.36
2019-06-01T07:55:54.460Z,37.17
2019-06-01T08:00:56.925Z,35.52
2019-06-01T08:05:59.386Z,36.64
2019-06-01T08:11:01.869Z,35.57
2019-06-01T08:16:04.423Z,35.50
2019-06-01T08:21:06.890Z,35.32
2019-06-01T08:26:09.515Z,34.62
2019-06-01T08:31:11.851Z,34.67
2019-06-01T08:36:15.027Z,32.50
2019-06-01T08:41:17.467Z,29.24
2019-06-01T08:46:19.937Z,23.81
2019-06-01T08:51:23.820Z,16.07
2019-06-01T08:56:26.072Z,13.15
2019-06-01T09:01:28.625Z,12.76
2019-06-01T09:06:30.970Z,10.33
2019-06-01T09:11:33.286Z,9.41
2019-06-01T09:16:35.984Z,8.35
2019-06-01T09:21:37.373Z,7.47
2019-06-01T09:26:39.852Z,7.45
2019-06-01T09:31:42.370Z,7.66
2019-06-01T09:36:44.821Z,6.21
2019-06-01T09:41:47.286Z,5.74
2019-06-01T09:46:49.756Z,5.48
2019-06-01T09:51:52.251Z,6.04
2019-06-01T09:56:54.747Z,6.36
2019-06-01T10:01:57.273Z,5.79
2019-06-01T10:06:59.723Z,5.81
2019-06-01T10:12:02.178Z,5.82
2019-06-01T10:17:04.629Z,8.19
2019-06-01T10:22:07.099Z,12.05
2019-06-01T10:27:09.587Z,15.31
2019-06-01T10:32:12.200Z,19.46
2019-06-01T10:37:14.646Z,20.66
2019-06-01T10:42:17.108Z,20.61
2019-06-01T10:47:19.565Z,22.21
2019-06-01T10:52:22.031Z,24.08
2019-06-01T10:57:24.511Z,26.01
2019-06-01T11:02:26.995Z,25.60
2019-06-01T11:07:29.754Z,26.21
2019-06-01T11:12:32.974Z,27.42
2019-06-01T11:17:34.940Z,25.27
2019-06-01T11:22:37.598Z,26.60
2019-06-01T11:27:39.807Z,24.54
2019-06-01T11:32:43.630Z,27.01
2019-06-01T11:37:44.660Z,26.40
2019-06-01T11:42:47.125Z,25.31
2019-06-01T11:47:49.586Z,23.60
2019-06-01T11:52:52.068Z,23.67
2019-06-01T11:57:54.516Z,24.97
2019-06-01T12:02:56.981Z,26.04
2019-06-01T12:07:59.445Z,23.69
2019-06-01T12:13:02.586Z,22.26
2019-06-01T12:18:05.042Z,22.39
2019-06-01T12:23:07.558Z,19.57
2019-06-01T12:28:09.967Z,17.57
2019-06-01T12:33:12.470Z,16.31
2019-06-01T12:38:15.216Z,13.26
2019-06-01T12:43:17.695Z,10.89
2019-06-01T12:48:20.182Z,12.97
2019-06-01T12:53:22.666Z,13.49
2019-06-01T12:58:25.394Z,14.17
2019-06-01T13:03:27.852Z,15.14
2019-06-01T13:08:30.325Z,16.34
2019-06-01T13:13:32.780Z,17.13
2019-06-01T13:18:35.258Z,17.97
2019-06-01T13:23:37.730Z,18.60
2019-06-01T13:28:40.210Z,19.16
2019-06-01T13:33:42.696Z,19.70
2019-06-01T13:38:45.201Z,19.47
2019-06-01T13:43:47.687Z,19.38
2019-06-01T13:48:50.148Z,21.68
2019-06-01T13:53:52.988Z,22.91
2019-06-01T13:58:55.079Z,22.07
2019-06-01T14:03:57.555Z,23.38
2019-06-01T14:09:00.010Z,25.13
2019-06-01T14:14:02.490Z,25.77
2019-06-01T14:19:06.855Z,25.56
2019-06-01T14:24:07.492Z,25.79
2019-06-01T14:29:09.956Z,26.05
2019-06-01T14:34:12.424Z,27.03
2019-06-01T14:39:14.889Z,26.50
2019-06-01T14:44:17.361Z,27.51
2019-06-01T14:49:19.826Z,27.59
2019-06-01T14:54:22.329Z,27.80
2019-06-01T14:59:25.280Z,27.64
2019-06-01T15:04:27.750Z,28.52
2019-06-01T15:09:30.228Z,28.68
2019-06-01T15:14:32.708Z,28.66
2019-06-01T15:19:35.172Z,28.67
2019-06-01T15:24:37.651Z,29.53
2019-06-01T15:29:40.138Z,29.10
2019-06-01T15:34:42.595Z,28.32
2019-06-01T15:39:45.076Z,29.10
2019-06-01T15:44:47.550Z,28.36
2019-06-01T15:49:49.994Z,28.31
2019-06-01T15:54:52.465Z,28.02
2019-06-01T15:59:54.962Z,29.51
2019-06-01T16:04:57.425Z,28.71
2019-06-01T16:09:59.905Z,29.15
2019-06-01T16:15:02.371Z,28.76
2019-06-01T16:20:07.570Z,29.79
2019-06-01T16:25:10.107Z,30.07
2019-06-01T16:30:12.583Z,30.46
2019-06-01T16:35:15.237Z,30.31
2019-06-01T16:40:17.676Z,29.51
2019-06-01T16:45:20.144Z,31.55
2019-06-01T16:50:22.610Z,29.76
2019-06-01T16:55:25.250Z,30.10
2019-06-01T17:00:27.705Z,29.87
2019-06-01T17:05:30.179Z,30.70
2019-06-01T17:10:32.631Z,31.51
2019-06-01T17:15:35.097Z,31.75
2019-06-01T17:20:43.264Z,31.77
2019-06-01T17:25:45.714Z,33.43
2019-06-01T17:30:48.354Z,32.10
2019-06-01T17:35:50.658Z,30.46
2019-06-01T17:40:53.203Z,29.98
2019-06-01T17:45:55.588Z,30.56
2019-06-01T17:50:58.047Z,30.68
2019-06-01T17:56:01.857Z,32.34
2019-06-01T18:01:04.258Z,33.28
2019-06-01T18:06:05.883Z,34.50
2019-06-01T18:11:08.188Z,35.30
2019-06-01T18:16:10.542Z,36.17
2019-06-01T18:21:13.036Z,38.00
2019-06-01T18:26:15.552Z,39.63
2019-06-01T18:31:18.011Z,39.82
2019-06-01T18:36:20.463Z,40.47
2019-06-01T18:41:22.965Z,41.21
2019-06-01T18:46:25.640Z,41.80
2019-06-01T18:51:28.103Z,42.81
2019-06-01T18:56:30.563Z,43.99
2019-06-01T19:01:33.146Z,44.71
2019-06-01T19:06:35.650Z,45.82
2019-06-01T19:11:38.103Z,46.53
2019-06-01T19:16:40.639Z,47.01
2019-06-01T19:21:43.139Z,47.38
2019-06-01T19:26:45.607Z,47.63
2019-06-01T19:31:48.055Z,48.01
2019-06-01T19:36:50.534Z,49.49
2019-06-01T19:41:53.048Z,49.49
2019-06-01T19:46:55.664Z,50.70
2019-06-01T19:51:58.136Z,51.20
2019-06-01T19:57:00.602Z,52.35
2019-06-01T20:02:03.059Z,52.39
2019-06-01T20:07:05.672Z,52.99
2019-06-01T20:12:12.887Z,52.58
2019-06-01T20:17:11.725Z,52.67
2019-06-01T20:22:13.139Z,53.12
2019-06-01T20:27:15.595Z,53.33
2019-06-01T20:32:18.180Z,53.49
2019-06-01T20:37:20.635Z,53.96
2019-06-01T20:42:32.077Z,54.34
2019-06-01T20:47:25.653Z,54.75
2019-06-01T20:52:28.268Z,54.69
2019-06-01T20:57:30.750Z,55.28
2019-06-01T21:02:33.212Z,55.73
2019-06-01T21:07:35.705Z,55.97
2019-06-01T21:12:46.218Z,56.01
2019-06-01T21:17:40.674Z,56.37
2019-06-01T21:22:43.146Z,56.89
2019-06-01T21:27:45.625Z,57.27
2019-06-01T21:32:48.135Z,57.67
2019-06-01T21:37:50.589Z,57.88
2019-06-01T21:43:03.207Z,58.40
2019-06-01T21:47:55.626Z,58.93
2019-06-01T21:52:58.090Z,59.04
2019-06-01T21:58:00.565Z,59.46
2019-06-01T22:03:03.038Z,59.76
2019-06-01T22:08:05.495Z,60.21
2019-06-01T22:13:18.309Z,60.58
2019-06-01T22:18:10.504Z,61.12
2019-06-01T22:23:12.942Z,61.55
2019-06-01T22:28:15.414Z,61.75
2019-06-01T22:33:20.079Z,61.88
2019-06-01T22:38:21.392Z,62.13
2019-06-01T22:43:39.272Z,62.21
2019-06-01T22:48:26.607Z,62.40
2019-06-01T22:53:28.311Z,62.65
2019-06-01T22:58:31.542Z,62.74
2019-06-01T23:03:32.768Z,62.48
2019-06-01T23:08:35.242Z,62.24
2019-06-01T23:13:52.385Z,62.44
2019-06-01T23:18:40.136Z,61.24
2019-06-01T23:23:42.612Z,61.25
2019-06-01T23:28:45.064Z,61.36
2019-06-01T23:33:47.556Z,61.03
2019-06-01T23:38:50.015Z,61.03
2019-06-01T23:44:07.795Z,61.06
2019-06-01T23:48:54.969Z,61.44
2019-06-01T23:53:57.444Z,62.11
2019-06-01T23:58:59.908Z,63.41
